createdAt,value
2022-10-05T00:00:39.964Z,97694.92
2022-10-05T00:11:06.859Z,97708.61
2022-10-05T00:21:24.247Z,97709.45
2022-10-05T00:31:33.199Z,97709.48
2022-10-05T00:41:58.991Z,97699.81
2022-10-05T00:52:20.472Z,97698.48
2022-10-05T01:02:39.223Z,97692.27
2022-10-05T01:12:56.246Z,97697.95
2022-10-05T01:23:22.144Z,97703.41
2022-10-05T01:33:34.498Z,97702.48
2022-10-05T01:44:01.269Z,97702.91
2022-10-05T01:54:07.915Z,97700.31
2022-10-05T02:04:37.253Z,97690.65
2022-10-05T02:14:47.856Z,97684.45
2022-10-05T02:24:56.875Z,97679.46
2022-10-05T02:35:10.066Z,97675.83
2022-10-05T02:45:19.449Z,97664.52
2022-10-05T02:55:39.304Z,97661.71
2022-10-05T03:05:59.127Z,97655.63
2022-10-05T03:16:38.921Z,97657.83
2022-10-05T03:27:01.478Z,97654.58
2022-10-05T03:37:22.158Z,97644.52
2022-10-05T03:47:37.104Z,97650.30
2022-10-05T03:57:43.010Z,97651.60
2022-10-05T04:08:00.281Z,97662.35
2022-10-05T04:18:11.925Z,97681.01
2022-10-05T04:28:31.978Z,97696.81
2022-10-05T04:38:39.547Z,97684.54
2022-10-05T04:48:46.678Z,97669.19
2022-10-05T04:59:23.172Z,97654.43
2022-10-05T05:09:52.837Z,97658.20
2022-10-05T05:20:37.045Z,97653.83
2022-10-05T05:31:00.522Z,97641.41
2022-10-05T05:41:13.632Z,97648.67
2022-10-05T05:51:31.747Z,97660.27
2022-10-05T06:01:45.760Z,97664.98
2022-10-05T06:12:25.922Z,97664.89
2022-10-05T06:22:46.611Z,97662.04
2022-10-05T06:33:18.275Z,97648.90
2022-10-05T06:43:41.894Z,97658.14
2022-10-05T06:54:24.585Z,97662.44
2022-10-05T07:04:55.584Z,97671.20
2022-10-05T07:15:18.638Z,97681.23
2022-10-05T07:25:31.926Z,97667.58
2022-10-05T07:36:06.519Z,97670.96
2022-10-05T07:46:38.217Z,97663.67
2022-10-05T07:56:44.960Z,97647.41
2022-10-05T08:06:58.962Z,97632.23
2022-10-05T08:17:12.299Z,97631.12
2022-10-05T08:27:34.305Z,97626.50
2022-10-05T08:37:42.788Z,97629.66
2022-10-05T08:48:01.802Z,97625.66
2022-10-05T08:58:14.278Z,97607.61
2022-10-05T09:08:59.493Z,97604.08
2022-10-05T09:19:24.632Z,97608.34
2022-10-05T09:29:34.302Z,97605.27
2022-10-05T09:40:00.528Z,97602.83
2022-10-05T09:50:30.279Z,97611.61
2022-10-05T10:01:09.425Z,97623.17
2022-10-05T10:11:43.339Z,97616.55
2022-10-05T10:22:24.758Z,97601.79
2022-10-05T10:32:51.903Z,97600.96
2022-10-05T10:43:07.521Z,97586.55
2022-10-05T10:53:48.608Z,97580.39
2022-10-05T11:04:14.018Z,97574.35
2022-10-05T11:14:36.069Z,97569.87
2022-10-05T11:25:05.014Z,97577.96
2022-10-05T11:35:20.368Z,97564.27
2022-10-05T11:45:33.224Z,97568.39
2022-10-05T11:56:02.028Z,97572.57
2022-10-05T12:06:39.033Z,97573.61
2022-10-05T12:17:04.639Z,97576.01
2022-10-05T12:27:20.941Z,97579.58
2022-10-05T12:37:39.802Z,97579.21
2022-10-05T12:48:22.029Z,97575.65
2022-10-05T12:59:10.755Z,97574.03
2022-10-05T13:09:27.047Z,97567.11
2022-10-05T13:19:39.773Z,97563.51
2022-10-05T13:29:56.825Z,97559.13
2022-10-05T13:40:00.558Z,97540.73
2022-10-05T13:50:17.554Z,97529.45
2022-10-05T14:00:26.324Z,97548.02
2022-10-05T14:10:39.080Z,97545.42
2022-10-05T14:21:01.601Z,97536.40
2022-10-05T14:31:29.910Z,97528.06
2022-10-05T14:41:42.597Z,97510.13
2022-10-05T14:51:46.469Z,97513.66
2022-10-05T15:01:59.373Z,97506.22
2022-10-05T15:12:04.240Z,97492.10
2022-10-05T15:22:34.825Z,97491.10
2022-10-05T15:32:55.988Z,97488.08
2022-10-05T15:43:23.723Z,97476.84
2022-10-05T15:53:52.741Z,97479.22
2022-10-05T16:04:26.568Z,97470.36
2022-10-05T16:14:54.007Z,97468.88
2022-10-05T16:25:09.448Z,97460.42
2022-10-05T16:35:44.831Z,97464.90
2022-10-05T16:46:13.597Z,97480.02
2022-10-05T16:56:22.545Z,97478.17
2022-10-05T17:06:41.058Z,97476.05
2022-10-05T17:17:21.351Z,97464.80
2022-10-05T17:27:51.036Z,97460.23
2022-10-05T17:38:38.663Z,97458.17
2022-10-05T17:48:55.193Z,97457.96
2022-10-05T17:59:00.534Z,97460.19
2022-10-05T18:09:21.304Z,97458.50
2022-10-05T18:19:27.238Z,97454.49
2022-10-05T18:29:59.233Z,97452.34
2022-10-05T18:40:35.121Z,97463.98
2022-10-05T18:51:03.880Z,97466.92
2022-10-05T19:01:36.945Z,97465.64
2022-10-05T19:12:21.504Z,97468.88
2022-10-05T19:23:19.612Z,97459.27
2022-10-05T19:33:23.531Z,97448.72
2022-10-05T19:43:56.724Z,97469.63
2022-10-05T19:54:21.987Z,97460.39
2022-10-05T20:04:34.460Z,97471.16
2022-10-05T20:14:59.402Z,97482.12
2022-10-05T20:25:29.475Z,97488.32
2022-10-05T20:35:33.542Z,97503.83
2022-10-05T20:45:43.757Z,97507.91
2022-10-05T20:55:48.357Z,97509.45
2022-10-05T21:05:52.518Z,97513.95
2022-10-05T21:15:57.065Z,97527.05
2022-10-05T21:26:02.032Z,97528.71
2022-10-05T21:36:05.986Z,97534.22
2022-10-05T21:46:12.101Z,97535.62
2022-10-05T21:56:21.658Z,97530.41
2022-10-05T22:06:25.571Z,97524.64
2022-10-05T22:16:33.253Z,97519.94
2022-10-05T22:26:37.506Z,97514.89
2022-10-05T22:36:43.023Z,97511.62
2022-10-05T22:46:48.223Z,97524.12
2022-10-05T22:56:52.198Z,97524.91
2022-10-05T23:06:56.087Z,97534.19
2022-10-05T23:16:59.880Z,97539.08
2022-10-05T23:27:03.699Z,97540.80
2022-10-05T23:37:07.470Z,97548.46
2022-10-05T23:47:11.034Z,97548.54
2022-10-05T23:57:19.509Z,97552.84
